Time;durP1;ratioP1;P1;durP2;ratioP2;P2;SDS_P1;SDS_P2;PMS_P1;PMS_P2;Temp;Humidity;BMP_temperature;BMP_pressure;BME280_temperature;BME280_humidity;BME280_pressure;Samples;Min_cycle;Max_cycle;Signal;HPM_P1;HPM_P2
2023/10/02 00:01:51;;;;;;;7.10;2.80;;;;;;;16.33;100.00;99860.77;108369;1253;69184;-61
2023/10/02 00:04:19;;;;;;;7.10;2.70;;;;;;;16.31;100.00;99858.90;108519;1252;72403;-61
2023/10/02 00:06:47;;;;;;;7.10;2.80;;;;;;;16.34;100.00;99861.20;108525;1256;62332;-61
2023/10/02 00:09:20;;;;;;;7.20;3.20;;;;;;;16.32;100.00;99862.20;108552;1253;60083;-61
2023/10/02 00:11:48;;;;;;;9.00;3.10;;;;;;;16.28;100.00;99863.35;108537;1252;74041;-61
2023/10/02 00:14:19;;;;;;;4.50;2.60;;;;;;;16.23;100.00;99867.55;108518;1252;69125;-61
2023/10/02 00:17:00;;;;;;;7.80;3.40;;;;;;;16.20;100.00;99868.84;108380;1253;72966;-61
2023/10/02 00:19:39;;;;;;;6.40;3.20;;;;;;;16.14;100.00;99864.92;108385;1253;61404;-61
2023/10/02 00:22:36;;;;;;;6.60;2.80;;;;;;;16.08;100.00;99865.66;108370;1253;58737;-61
2023/10/02 00:25:09;;;;;;;7.80;3.30;;;;;;;16.07;100.00;99867.50;108326;1253;73625;-61
2023/10/02 00:27:37;;;;;;;6.50;3.30;;;;;;;16.07;100.00;99869.98;108479;1252;69357;-62
2023/10/02 00:30:08;;;;;;;;;;;;;;;16.03;100.00;99872.15;108377;1254;72568;-62
2023/10/02 00:32:40;;;;;;;6.50;2.70;;;;;;;15.99;100.00;99873.48;108463;1254;61436;-61
2023/10/02 00:35:12;;;;;;;7.30;3.00;;;;;;;15.96;100.00;99870.98;108557;1252;59698;-66
2023/10/02 00:37:52;;;;;;;8.00;3.00;;;;;;;15.93;100.00;99870.79;108561;1253;75656;-61
2023/10/02 00:40:26;;;;;;;9.10;2.80;;;;;;;15.87;100.00;99873.48;108584;1252;69620;-62
2023/10/02 00:43:33;;;;;;;5.90;2.80;;;;;;;15.85;100.00;99871.67;108513;1253;73374;-63
2023/10/02 00:45:49;;;;;;;7.90;2.70;;;;;;;15.80;100.00;99872.73;108439;1254;61442;-61
2023/10/02 00:48:25;;;;;;;6.10;2.90;;;;;;;15.76;100.00;99871.89;108206;1253;59871;-62
2023/10/02 00:50:58;;;;;;;7.40;3.50;;;;;;;15.73;100.00;99869.55;108424;1254;73712;-61
2023/10/02 00:53:45;;;;;;;5.10;3.40;;;;;;;15.69;100.00;99869.79;108427;1253;69524;-63
2023/10/02 00:56:24;;;;;;;6.70;3.80;;;;;;;15.63;100.00;99872.96;108174;1252;72735;-64
2023/10/02 00:59:00;;;;;;;7.60;2.50;;;;;;;15.57;100.00;99873.18;108548;1254;61381;-63
2023/10/02 01:01:31;;;;;;;6.40;3.20;;;;;;;15.54;100.00;99872.41;108469;1253;60700;-63
2023/10/02 01:04:08;;;;;;;6.10;3.00;;;;;;;15.53;100.00;99873.77;108553;1253;72645;-63
2023/10/02 01:06:54;;;;;;;5.20;3.30;;;;;;;15.49;100.00;99879.27;108519;1253;71816;-61
2023/10/02 01:09:26;;;;;;;7.30;3.50;;;;;;;15.46;100.00;99879.61;108424;1254;72929;-61
2023/10/02 01:11:56;;;;;;;6.70;2.90;;;;;;;15.45;100.00;99887.13;108441;1253;61526;-61
2023/10/02 01:14:47;;;;;;;7.00;3.10;;;;;;;15.41;100.00;99884.52;108480;1252;60033;-62
2023/10/02 01:17:14;;;;;;;8.60;3.10;;;;;;;15.38;100.00;99887.35;108276;1253;72506;-59
2023/10/02 01:19:54;;;;;;;7.70;2.90;;;;;;;15.35;100.00;99887.70;108245;1252;69139;-65
2023/10/02 01:22:30;;;;;;;7.10;3.10;;;;;;;15.29;100.00;99888.61;108090;1254;72352;-65
2023/10/02 01:25:14;;;;;;;6.20;3.30;;;;;;;15.23;100.00;99889.80;108278;1254;62838;-62
2023/10/02 01:27:47;;;;;;;4.40;3.00;;;;;;;15.20;100.00;99887.48;108437;1252;60123;-62
2023/10/02 01:30:20;;;;;;;9.40;3.10;;;;;;;15.19;100.00;99888.81;108356;1252;73670;-63
2023/10/02 01:35:46;;;;;;;4.70;2.90;;;;;;;15.18;100.00;99891.83;108409;1254;72380;-63
2023/10/02 01:38:33;;;;;;;6.90;3.00;;;;;;;15.15;100.00;99892.05;108399;1254;62322;-63
2023/10/02 01:41:06;;;;;;;5.90;3.00;;;;;;;15.12;100.00;99890.11;108394;1254;59899;-62
2023/10/02 01:43:36;;;;;;;6.70;3.20;;;;;;;15.11;100.00;99895.23;108399;1253;73569;-62
2023/10/02 01:46:05;;;;;;;7.30;2.90;;;;;;;15.11;100.00;99897.01;108420;1257;69849;-62
2023/10/02 01:48:37;;;;;;;9.10;3.50;;;;;;;15.09;100.00;99899.43;108407;1252;72202;-63
2023/10/02 01:51:50;;;;;;;4.20;2.60;;;;;;;15.04;100.00;99899.05;108418;1254;61436;-63
2023/10/02 01:54:15;;;;;;;8.70;2.90;;;;;;;14.96;100.00;99900.88;108276;1257;59697;-63
2023/10/02 01:56:47;;;;;;;5.20;3.00;;;;;;;14.97;100.00;99902.27;108425;1252;73660;-62
2023/10/02 01:59:16;;;;;;;7.00;3.10;;;;;;;14.98;100.00;99900.95;108341;1252;69180;-62
2023/10/02 02:01:51;;;;;;;8.00;3.20;;;;;;;14.93;100.00;99890.29;108316;1254;71558;-62
2023/10/02 02:04:28;;;;;;;6.50;3.10;;;;;;;14.91;100.00;99896.25;108352;1254;60721;-62
2023/10/02 02:06:57;;;;;;;7.10;2.90;;;;;;;14.96;100.00;99903.73;108431;1253;58663;-63
2023/10/02 02:09:26;;;;;;;7.10;3.40;;;;;;;14.94;100.00;99907.55;108423;1254;72863;-63
2023/10/02 02:12:10;;;;;;;4.60;2.90;;;;;;;14.92;100.00;99912.05;108396;1253;69395;-63
2023/10/02 02:14:49;;;;;;;7.70;3.60;;;;;;;14.93;100.00;99913.39;108409;1256;71597;-63
2023/10/02 02:17:20;;;;;;;6.90;3.00;;;;;;;14.90;100.00;99911.46;108338;1254;61420;-64
2023/10/02 02:19:52;;;;;;;8.10;3.70;;;;;;;14.85;100.00;99913.54;108489;1251;59761;-64
2023/10/02 02:22:25;;;;;;;5.00;2.60;;;;;;;14.81;100.00;99910.58;108492;1253;72880;-65
2023/10/02 02:24:54;;;;;;;9.30;3.10;;;;;;;14.80;100.00;99910.95;108476;1251;67963;-63
2023/10/02 02:27:22;;;;;;;7.60;3.30;;;;;;;14.82;100.00;99909.09;108452;1252;73418;-66
2023/10/02 02:29:54;;;;;;;6.10;3.20;;;;;;;14.79;100.00;99909.61;108475;1253;61391;-62
2023/10/02 02:32:44;;;;;;;6.60;3.50;;;;;;;14.78;100.00;99910.02;108614;1251;60169;-63
2023/10/02 02:35:17;;;;;;;8.40;3.40;;;;;;;14.77;100.00;99911.10;108658;1251;72336;-67
2023/10/02 02:37:49;;;;;;;7.80;3.30;;;;;;;14.77;100.00;99912.73;108564;1251;68105;-66
2023/10/02 02:40:29;;;;;;;6.70;3.10;;;;;;;14.73;100.00;99913.31;108474;1256;72523;-66
2023/10/02 02:42:58;;;;;;;6.60;3.30;;;;;;;14.65;100.00;99913.91;108618;1251;61407;-66
2023/10/02 02:45:28;;;;;;;7.70;2.80;;;;;;;14.62;100.00;99915.14;108685;1251;60346;-66
2023/10/02 02:48:04;;;;;;;11.80;3.90;;;;;;;14.59;100.00;99916.70;108639;1252;73672;-66
2023/10/02 02:50:43;;;;;;;7.30;3.50;;;;;;;14.58;100.00;99913.41;108638;1251;69505;-66
2023/10/02 02:53:46;;;;;;;5.90;3.10;;;;;;;14.57;100.00;99913.10;108619;1254;72362;-67
2023/10/02 02:56:18;;;;;;;6.40;3.00;;;;;;;14.57;100.00;99915.38;108483;1251;61380;-66
2023/10/02 02:58:55;;;;;;;6.00;2.80;;;;;;;14.56;100.00;99915.08;108642;1252;59631;-65
2023/10/02 03:01:24;;;;;;;6.70;3.30;;;;;;;14.57;100.00;99914.35;108688;1251;73654;-64
2023/10/02 03:03:55;;;;;;;11.10;3.40;;;;;;;14.54;100.00;99913.27;108626;1253;69602;-64
2023/10/02 03:06:23;;;;;;;6.30;3.10;;;;;;;14.50;100.00;99914.70;108563;1252;72498;-64
2023/10/02 03:08:51;;;;;;;;;;;;;;;14.48;100.00;99917.11;108528;1254;61747;-64
2023/10/02 03:11:22;;;;;;;;;;;;;;;14.42;100.00;99916.36;108668;1253;59460;-64
2023/10/02 03:13:50;;;;;;;6.20;2.80;;;;;;;14.39;100.00;99912.67;108621;1251;73637;-64
2023/10/02 03:16:21;;;;;;;;;;;;;;;14.37;100.00;99914.69;108612;1254;70073;-64
2023/10/02 03:18:49;;;;;;;7.20;3.10;;;;;;;14.37;100.00;99912.73;108405;1254;72950;-64
2023/10/02 03:21:23;;;;;;;6.50;2.90;;;;;;;14.37;100.00;99914.35;108440;1252;60264;-64
2023/10/02 03:23:53;;;;;;;5.30;2.40;;;;;;;14.35;100.00;99914.81;108380;1253;58754;-63
2023/10/02 03:29:04;;;;;;;6.90;3.10;;;;;;;14.33;100.00;99912.98;108416;1252;69329;-63
2023/10/02 03:31:51;;;;;;;6.60;3.10;;;;;;;14.35;100.00;99913.03;108351;1254;72428;-63
2023/10/02 03:34:30;;;;;;;9.30;3.00;;;;;;;14.37;100.00;99913.64;108393;1254;60804;-63
2023/10/02 03:39:51;;;;;;;7.20;3.10;;;;;;;14.35;100.00;99916.23;108536;1253;72731;-62
2023/10/02 03:42:22;;;;;;;9.60;3.70;;;;;;;14.31;100.00;99918.72;108568;1254;69608;-63
2023/10/02 03:44:54;;;;;;;7.50;3.10;;;;;;;14.30;100.00;99921.25;108570;1253;72402;-64
2023/10/02 03:47:22;;;;;;;6.20;2.90;;;;;;;14.30;100.00;99922.34;108547;1253;61040;-64
2023/10/02 03:50:00;;;;;;;10.10;3.40;;;;;;;14.27;100.00;99920.20;108293;1252;60255;-64
2023/10/02 03:52:30;;;;;;;6.20;2.90;;;;;;;14.24;100.00;99918.40;108406;1252;73693;-64
2023/10/02 03:55:14;;;;;;;7.60;3.00;;;;;;;14.24;100.00;99923.89;108206;1253;69220;-65
2023/10/02 03:57:50;;;;;;;6.70;3.20;;;;;;;14.21;100.00;99921.55;108343;1253;71839;-65
2023/10/02 04:00:21;;;;;;;8.40;3.20;;;;;;;14.18;100.00;99924.35;108331;1252;62478;-62
2023/10/02 04:02:51;;;;;;;7.00;3.30;;;;;;;14.20;100.00;99924.77;108356;1253;59719;-62
2023/10/02 04:05:42;;;;;;;5.90;3.80;;;;;;;14.18;100.00;99927.00;108301;1254;73536;-61
2023/10/02 04:10:55;;;;;;;5.70;3.10;;;;;;;14.16;100.00;99933.29;108329;1254;72343;-61
2023/10/02 04:13:38;;;;;;;10.20;3.60;;;;;;;14.14;100.00;99932.85;108425;1254;61556;-63
2023/10/02 04:18:59;;;;;;;7.30;3.50;;;;;;;14.12;100.00;99934.35;108588;1251;74459;-62
2023/10/02 04:21:28;;;;;;;6.80;3.60;;;;;;;14.14;100.00;99935.16;108576;1251;69435;-61
2023/10/02 04:23:57;;;;;;;9.70;3.20;;;;;;;14.14;100.00;99939.40;108573;1251;72907;-62
2023/10/02 04:26:28;;;;;;;7.30;3.90;;;;;;;14.13;100.00;99938.74;108574;1251;61892;-62
2023/10/02 04:29:09;;;;;;;9.00;4.30;;;;;;;14.11;100.00;99933.73;108635;1251;60695;-62
2023/10/02 04:31:41;;;;;;;7.90;3.40;;;;;;;14.09;100.00;99943.35;108569;1254;72568;-61
2023/10/02 04:36:43;;;;;;;8.50;3.40;;;;;;;14.13;100.00;99945.40;108592;1251;72341;-64
2023/10/02 04:42:19;;;;;;;8.80;3.60;;;;;;;14.13;100.00;99947.77;108609;1251;58807;-63
2023/10/02 04:44:48;;;;;;;7.10;3.10;;;;;;;14.12;100.00;99955.52;108631;1251;73603;-63
2023/10/02 04:47:20;;;;;;;6.90;3.50;;;;;;;14.09;100.00;99957.64;108546;1251;69047;-62
2023/10/02 04:55:41;;;;;;;6.50;3.60;;;;;;;14.09;100.00;99971.88;108682;1251;60141;-63
2023/10/02 04:58:17;;;;;;;8.90;4.20;;;;;;;14.14;100.00;99975.88;108597;1251;73570;-65
2023/10/02 05:03:49;;;;;;;12.00;3.90;;;;;;;14.20;100.00;99976.10;108551;1251;72887;-67
2023/10/02 05:06:39;;;;;;;6.30;3.40;;;;;;;14.24;100.00;99977.48;108607;1251;61604;-65
2023/10/02 05:09:19;;;;;;;8.60;4.00;;;;;;;14.27;100.00;99980.14;108612;1251;60098;-64
2023/10/02 05:12:03;;;;;;;7.70;3.60;;;;;;;14.31;100.00;99984.31;108622;1251;73637;-65
2023/10/02 05:14:48;;;;;;;4.50;2.80;;;;;;;14.33;100.00;99984.60;108538;1251;68323;-63
2023/10/02 05:17:38;;;;;;;6.00;3.30;;;;;;;14.36;100.00;99989.52;108526;1251;71293;-63
2023/10/02 05:20:13;;;;;;;9.50;3.50;;;;;;;14.43;100.00;99993.94;108369;1257;61352;-64
2023/10/02 05:22:42;;;;;;;9.10;3.10;;;;;;;14.45;100.00;99992.26;108454;1251;60202;-65
2023/10/02 05:25:16;;;;;;;4.90;3.00;;;;;;;14.49;100.00;99993.24;108523;1250;73719;-65
2023/10/02 05:27:47;;;;;;;11.40;3.50;;;;;;;14.57;100.00;99997.61;108552;1251;70467;-64
2023/10/02 05:30:17;;;;;;;8.30;3.40;;;;;;;14.62;100.00;100000.50;108566;1251;73398;-63
2023/10/02 05:34:23;;;;;;;8.80;3.50;;;;;;;14.19;100.00;100001.30;101417;1292;601477;-63
2023/10/02 05:39:39;;;;;;;6.10;3.50;;;;;;;14.76;100.00;100005.06;103691;1283;59765;-63
2023/10/02 05:42:14;;;;;;;6.90;3.30;;;;;;;14.83;100.00;100005.55;103518;1282;72495;-62
2023/10/02 05:44:44;;;;;;;10.90;3.50;;;;;;;14.88;100.00;100004.73;105157;1267;70161;-64
2023/10/02 05:47:15;;;;;;;7.40;3.40;;;;;;;14.90;100.00;100004.67;104500;1271;372940;-63
2023/10/02 05:49:48;;;;;;;11.40;3.80;;;;;;;14.96;100.00;100005.39;104121;1272;61446;-62
2023/10/02 05:52:18;;;;;;;11.70;3.50;;;;;;;15.05;100.00;100010.90;103906;1274;60096;-62
2023/10/02 05:54:47;;;;;;;6.30;3.40;;;;;;;15.11;100.00;100010.77;104015;1269;72446;-63
2023/10/02 05:57:17;;;;;;;7.10;3.10;;;;;;;15.12;100.00;100013.13;105321;1264;70115;-64
2023/10/02 05:59:46;;;;;;;6.60;3.70;;;;;;;15.14;100.00;100012.29;105300;1263;72395;-64
2023/10/02 06:02:22;;;;;;;10.00;3.50;;;;;;;15.11;100.00;100018.65;105372;1264;61603;-62
2023/10/02 06:04:53;;;;;;;11.50;4.00;;;;;;;15.14;100.00;100018.85;104151;1263;59846;-62
2023/10/02 06:07:43;;;;;;;6.70;3.60;;;;;;;15.16;100.00;100016.79;104155;1268;73071;-63
2023/10/02 06:10:25;;;;;;;6.30;3.30;;;;;;;15.23;100.00;100016.98;104532;1259;69548;-63
2023/10/02 06:13:08;;;;;;;6.20;3.50;;;;;;;15.31;100.00;100018.10;104386;1267;72340;-63
2023/10/02 06:15:48;;;;;;;8.60;3.10;;;;;;;15.37;100.00;100022.00;104386;1264;61391;-62
2023/10/02 06:18:27;;;;;;;6.60;3.50;;;;;;;15.39;100.00;100021.19;105731;1261;60673;-64
2023/10/02 06:21:00;;;;;;;7.30;4.00;;;;;;;15.40;100.00;100022.18;107045;1254;73651;-63
2023/10/02 06:23:37;;;;;;;7.90;3.10;;;;;;;15.40;100.00;100027.29;104376;1274;69716;-63
2023/10/02 06:26:09;;;;;;;8.30;3.70;;;;;;;15.44;100.00;100028.14;104642;1257;72355;-64
2023/10/02 06:28:38;;;;;;;7.50;3.70;;;;;;;15.52;100.00;100024.69;104776;1257;62605;-64
2023/10/02 06:31:08;;;;;;;9.20;4.50;;;;;;;15.60;100.00;100030.23;104650;1256;59804;-64
2023/10/02 06:33:36;;;;;;;6.80;3.30;;;;;;;15.68;100.00;100031.33;104390;1274;72944;-64
2023/10/02 06:36:08;;;;;;;8.60;3.40;;;;;;;15.74;100.00;100034.92;104435;1274;70640;-63
2023/10/02 06:38:39;;;;;;;6.60;3.30;;;;;;;15.82;100.00;100036.39;104686;1257;73346;-63
2023/10/02 06:41:08;;;;;;;9.40;3.60;;;;;;;15.89;100.00;100039.39;104362;1257;61393;-63
2023/10/02 06:43:36;;;;;;;10.60;3.30;;;;;;;15.92;100.00;100037.23;104384;1273;60334;-63
2023/10/02 06:46:18;;;;;;;5.30;3.30;;;;;;;15.96;100.00;100041.78;104320;1260;72720;-63
2023/10/02 06:48:47;;;;;;;7.70;3.50;;;;;;;16.00;100.00;100038.20;104421;1267;69111;-63
2023/10/02 06:51:14;;;;;;;;;;;;;;;16.06;100.00;100038.92;104542;1260;73367;-62
2023/10/02 06:53:42;;;;;;;;;;;;;;;16.14;100.00;100041.77;104352;1258;61500;-62
2023/10/02 06:56:12;;;;;;;6.10;3.20;;;;;;;16.18;100.00;100039.59;104338;1259;59954;-62
2023/10/02 06:58:49;;;;;;;8.90;3.90;;;;;;;16.25;100.00;100039.17;104344;1275;72809;-62
2023/10/02 07:01:27;;;;;;;8.20;3.80;;;;;;;16.35;100.00;100041.79;104693;1259;70182;-62
2023/10/02 07:04:08;;;;;;;9.90;3.70;;;;;;;16.46;100.00;100041.61;104649;1258;72480;-63
2023/10/02 07:06:39;;;;;;;9.90;3.70;;;;;;;16.54;100.00;100044.30;104729;1263;62402;-63
2023/10/02 07:09:10;;;;;;;8.60;3.40;;;;;;;16.60;100.00;100048.20;104537;1257;59903;-66
2023/10/02 07:11:42;;;;;;;9.20;3.30;;;;;;;16.64;100.00;100047.58;104553;1257;73728;-65
2023/10/02 07:14:10;;;;;;;6.80;3.30;;;;;;;16.70;100.00;100048.45;104311;1267;69706;-65
2023/10/02 07:16:39;;;;;;;10.20;3.70;;;;;;;16.75;100.00;100048.30;104330;1274;73366;-65
2023/10/02 07:19:07;;;;;;;9.30;3.60;;;;;;;16.81;100.00;100052.58;105514;1253;61756;-65
2023/10/02 07:21:35;;;;;;;6.30;2.80;;;;;;;16.83;100.00;100050.36;108299;1251;60694;-66
2023/10/02 07:24:20;;;;;;;5.40;2.90;;;;;;;16.89;100.00;100056.89;107246;1251;73122;-65
2023/10/02 07:26:52;;;;;;;7.40;3.20;;;;;;;16.99;100.00;100057.19;108258;1251;69098;-63
2023/10/02 07:29:32;;;;;;;9.20;3.60;;;;;;;17.06;100.00;100061.48;108333;1251;72500;-63
2023/10/02 07:31:59;;;;;;;6.50;3.70;;;;;;;17.16;100.00;100062.83;108219;1251;61441;-64
2023/10/02 07:34:30;;;;;;;8.20;4.00;;;;;;;17.26;100.00;100064.14;106976;1251;61663;-62
2023/10/02 07:37:05;;;;;;;6.30;3.30;;;;;;;17.32;100.00;100064.10;104642;1254;73657;-62
2023/10/02 07:39:36;;;;;;;8.10;3.80;;;;;;;17.42;100.00;100062.23;104611;1274;69216;-62
2023/10/02 07:42:04;;;;;;;6.10;3.30;;;;;;;17.57;100.00;100061.45;104596;1260;72815;-63
2023/10/02 07:44:37;;;;;;;8.30;3.40;;;;;;;17.68;100.00;100063.02;104626;1257;61355;-63
2023/10/02 07:47:10;;;;;;;8.60;3.40;;;;;;;17.78;100.00;100064.67;104751;1257;59763;-63
2023/10/02 07:49:39;;;;;;;5.60;3.00;;;;;;;17.88;100.00;100068.80;104781;1251;74044;-63
2023/10/02 07:52:08;;;;;;;7.90;2.90;;;;;;;17.97;100.00;100071.64;104668;1251;68345;-62
2023/10/02 07:54:44;;;;;;;;;;;;;;;18.03;100.00;100067.28;104330;1258;72390;-61
2023/10/02 07:57:13;;;;;;;8.50;3.30;;;;;;;18.11;100.00;100069.24;104323;1254;62317;-61
2023/10/02 07:59:43;;;;;;;7.70;3.50;;;;;;;18.12;100.00;100064.73;104788;1252;59780;-62
2023/10/02 08:02:30;;;;;;;8.10;3.50;;;;;;;18.18;100.00;100069.67;108395;1251;72906;-62
2023/10/02 08:05:00;;;;;;;5.70;3.60;;;;;;;18.26;100.00;100074.61;106220;1255;69165;-63
2023/10/02 08:07:29;;;;;;;7.40;3.30;;;;;;;18.37;100.00;100076.17;104701;1258;72325;-62
2023/10/02 08:10:14;;;;;;;5.00;3.00;;;;;;;18.43;100.00;100077.02;104390;1259;61457;-62
2023/10/02 08:12:54;;;;;;;5.30;3.30;;;;;;;18.51;100.00;100082.99;104526;1257;59689;-63
2023/10/02 08:15:27;;;;;;;7.40;3.70;;;;;;;18.59;100.00;100079.64;104367;1259;72892;-63
2023/10/02 08:20:37;;;;;;;5.70;2.90;;;;;;;18.69;100.00;100078.40;106730;1251;72447;-62
2023/10/02 08:23:21;;;;;;;7.80;3.50;;;;;;;18.74;100.00;100078.23;108291;1251;61477;-62
2023/10/02 08:26:02;;;;;;;4.90;2.70;;;;;;;18.83;100.00;100073.92;104916;1251;59738;-61
2023/10/02 08:28:37;;;;;;;5.50;3.00;;;;;;;18.87;100.00;100073.24;104608;1251;72273;-62
2023/10/02 08:31:13;;;;;;;5.90;3.00;;;;;;;18.92;100.00;100071.00;105269;1258;69253;-63
2023/10/02 08:33:43;;;;;;;5.50;3.20;;;;;;;19.00;100.00;100076.47;104670;1257;72341;-63
2023/10/02 08:36:29;;;;;;;;;;;;;;;19.14;100.00;100077.40;104596;1260;61331;-63
2023/10/02 08:39:00;;;;;;;6.50;2.90;;;;;;;19.16;100.00;100079.59;104432;1257;59979;-61
2023/10/02 08:41:46;;;;;;;6.10;3.30;;;;;;;19.20;100.00;100080.38;104299;1260;72130;-62
2023/10/02 08:44:14;;;;;;;7.10;3.40;;;;;;;19.25;100.00;100084.60;104728;1257;73074;-62
2023/10/02 08:46:43;;;;;;;5.00;3.40;;;;;;;19.33;100.00;100079.23;104425;1259;72936;-61
2023/10/02 08:49:16;;;;;;;6.70;3.70;;;;;;;19.45;100.00;100079.62;104588;1253;65580;-62
2023/10/02 08:51:50;;;;;;;9.80;3.30;;;;;;;19.56;100.00;100082.93;104343;1257;59649;-62
2023/10/02 08:54:18;;;;;;;7.30;3.00;;;;;;;19.65;100.00;100080.83;104424;1273;72762;-62
2023/10/02 08:56:50;;;;;;;4.90;2.90;;;;;;;19.72;99.96;100085.87;104567;1267;68478;-62
2023/10/02 08:59:27;;;;;;;6.70;3.40;;;;;;;19.77;100.00;100087.64;104253;1259;72480;-62
2023/10/02 09:02:16;;;;;;;8.70;3.00;;;;;;;19.85;100.00;100081.33;104695;1255;63268;-62
2023/10/02 09:04:55;;;;;;;8.30;3.20;;;;;;;19.95;98.37;100088.42;104666;1255;61123;-61
2023/10/02 09:10:26;;;;;;;5.70;3.20;;;;;;;20.08;95.64;100089.56;104596;1257;69123;-60
2023/10/02 09:13:14;;;;;;;8.60;3.10;;;;;;;20.18;95.78;100092.39;104426;1267;73312;-61
2023/10/02 09:15:46;;;;;;;9.50;3.10;;;;;;;20.30;95.54;100092.36;104877;1251;62451;-61
2023/10/02 09:19:07;;;;;;;8.10;3.30;;;;;;;20.41;93.60;100089.25;104766;1257;60089;-62
2023/10/02 17:50:34;;;;;;;13.00;6.90;;;;;;;15.70;93.69;100283.77;101558;1295;601259;-61
2023/10/02 17:53:04;;;;;;;12.30;6.00;;;;;;;16.11;89.73;100282.84;103881;1275;59250;-62
2023/10/02 17:55:32;;;;;;;14.90;7.80;;;;;;;16.13;89.56;100287.63;103642;1266;59509;-61
2023/10/02 17:58:00;;;;;;;;;;;;;;;16.11;88.93;100288.14;103488;1283;71956;-61
2023/10/02 18:00:28;;;;;;;;;;;;;;;16.06;89.15;100291.57;103752;1267;69628;-61
2023/10/02 18:02:57;;;;;;;14.40;6.40;;;;;;;16.00;89.85;100289.09;103717;1270;72476;-61
2023/10/02 18:05:28;;;;;;;13.10;6.20;;;;;;;15.95;88.55;100288.63;103204;1276;60633;-63
2023/10/02 18:07:56;;;;;;;19.30;7.30;;;;;;;15.88;90.68;100296.46;104407;1263;59703;-61
2023/10/02 18:10:24;;;;;;;13.50;6.20;;;;;;;15.80;90.55;100303.25;103944;1270;73154;-61
2023/10/02 18:12:51;;;;;;;11.30;6.20;;;;;;;15.76;91.28;100305.91;103955;1280;69597;-63
2023/10/02 18:15:19;;;;;;;12.90;6.20;;;;;;;15.70;92.64;100304.63;104214;1263;76119;-63
2023/10/02 18:17:47;;;;;;;17.70;6.50;;;;;;;15.67;93.37;100302.66;103882;1285;60799;-63
2023/10/02 18:20:15;;;;;;;14.80;6.60;;;;;;;15.63;93.92;100298.48;107038;1263;59450;-64
2023/10/02 18:22:49;;;;;;;12.00;6.70;;;;;;;15.63;94.77;100303.23;104167;1283;73113;-63
2023/10/02 18:25:17;;;;;;;13.20;6.40;;;;;;;15.56;95.44;100301.84;104076;1264;69656;-63
2023/10/02 18:27:47;;;;;;;16.70;6.60;;;;;;;15.52;95.36;100302.58;105288;1263;72408;-63
2023/10/02 18:30:15;;;;;;;12.50;6.20;;;;;;;15.48;95.21;100306.84;106204;1263;61814;-60
2023/10/02 18:32:43;;;;;;;14.30;6.30;;;;;;;15.44;95.48;100310.42;104145;1264;59899;-66
2023/10/02 18:35:11;;;;;;;17.70;6.60;;;;;;;15.40;96.22;100312.92;104184;1263;73551;-65
2023/10/02 18:37:41;;;;;;;14.80;7.40;;;;;;;15.35;97.17;100312.79;104240;1263;69348;-63
2023/10/02 18:40:13;;;;;;;16.70;7.30;;;;;;;15.32;98.32;100318.46;104554;1257;73174;-63
2023/10/02 18:42:41;;;;;;;12.60;7.60;;;;;;;15.29;99.14;100323.36;104350;1260;61364;-62
2023/10/02 18:45:12;;;;;;;;;;;;;;;15.25;99.51;100324.66;104246;1261;60651;-62
2023/10/02 18:47:41;;;;;;;11.40;7.30;;;;;;;15.21;100.00;100328.23;104425;1260;71887;-63
2023/10/02 18:50:10;;;;;;;11.80;7.30;;;;;;;15.16;99.46;100331.63;104283;1254;72513;-64
2023/10/02 18:52:41;;;;;;;11.00;7.20;;;;;;;15.14;99.75;100334.55;104299;1277;72760;-64
2023/10/02 18:55:09;;;;;;;13.20;7.40;;;;;;;15.11;99.96;100337.56;104261;1258;62327;-65
2023/10/02 18:57:39;;;;;;;16.70;8.00;;;;;;;15.09;100.00;100340.13;104290;1257;60082;-64
2023/10/02 19:00:16;;;;;;;14.10;8.40;;;;;;;15.05;100.00;100343.86;104308;1272;72894;-64
2023/10/02 19:02:45;;;;;;;12.10;7.70;;;;;;;15.03;100.00;100348.88;104214;1278;69177;-66
2023/10/02 19:05:13;;;;;;;13.90;8.60;;;;;;;15.01;100.00;100348.80;104344;1260;72461;-62
2023/10/02 19:07:42;;;;;;;;;;;;;;;14.99;100.00;100352.63;104288;1257;61722;-63
2023/10/02 19:10:10;;;;;;;12.70;7.90;;;;;;;14.96;100.00;100349.23;104266;1265;60117;-62
2023/10/02 19:12:37;;;;;;;;;;;;;;;14.93;100.00;100349.20;104260;1278;72017;-62
2023/10/02 19:15:09;;;;;;;11.30;7.60;;;;;;;14.92;100.00;100349.79;104301;1264;69706;-62
2023/10/02 19:17:37;;;;;;;9.70;6.30;;;;;;;14.91;100.00;100352.13;104304;1270;72491;-63
2023/10/02 19:20:06;;;;;;;13.20;7.20;;;;;;;14.89;100.00;100354.55;104240;1265;61412;-61
2023/10/02 19:22:35;;;;;;;15.90;7.10;;;;;;;14.88;100.00;100358.48;104233;1278;59765;-62
2023/10/02 19:25:03;;;;;;;13.60;6.60;;;;;;;14.87;100.00;100361.14;104236;1278;73419;-62
2023/10/02 19:27:31;;;;;;;;;;;;;;;14.89;100.00;100359.46;104350;1260;70097;-62
2023/10/02 19:29:59;;;;;;;9.40;6.60;;;;;;;14.87;100.00;100363.10;104275;1278;71814;-62
2023/10/02 19:32:27;;;;;;;12.10;7.00;;;;;;;14.80;100.00;100360.26;107891;1257;61407;-64
2023/10/02 19:34:55;;;;;;;;;;;;;;;14.79;100.00;100364.91;105241;1257;59758;-63
2023/10/02 19:37:25;;;;;;;11.60;7.40;;;;;;;14.77;100.00;100364.63;105366;1257;73519;-64
2023/10/02 19:39:53;;;;;;;11.00;6.80;;;;;;;14.74;100.00;100359.30;104392;1260;69702;-62
2023/10/02 19:42:21;;;;;;;;;;;;;;;14.72;100.00;100358.86;104266;1258;71441;-61
2023/10/02 19:44:48;;;;;;;;;;;;;;;14.72;100.00;100358.88;104320;1260;61538;-63
2023/10/02 19:47:16;;;;;;;12.20;7.30;;;;;;;14.69;100.00;100358.34;104173;1266;59727;-63
2023/10/02 19:49:44;;;;;;;;;;;;;;;14.68;100.00;100353.08;104200;1257;73519;-63
2023/10/02 19:52:12;;;;;;;10.10;6.50;;;;;;;14.69;100.00;100353.93;104162;1263;69712;-61
2023/10/02 19:54:42;;;;;;;9.50;6.70;;;;;;;14.68;100.00;100353.59;104274;1259;71793;-62
2023/10/02 19:57:10;;;;;;;12.00;7.00;;;;;;;14.68;100.00;100355.91;104242;1257;62594;-61
2023/10/02 19:59:38;;;;;;;10.50;6.70;;;;;;;14.65;100.00;100359.23;104262;1278;59892;-62
2023/10/02 20:02:06;;;;;;;10.40;6.30;;;;;;;14.63;100.00;100363.56;104405;1260;72905;-62
2023/10/02 20:04:35;;;;;;;10.00;6.20;;;;;;;14.59;100.00;100369.21;104337;1266;69210;-61
2023/10/02 20:07:03;;;;;;;11.00;6.50;;;;;;;14.56;100.00;100364.91;104264;1266;72445;-62
2023/10/02 20:09:36;;;;;;;11.40;6.30;;;;;;;14.57;100.00;100362.60;104372;1257;61477;-62
2023/10/02 20:12:05;;;;;;;10.00;6.00;;;;;;;14.60;100.00;100360.15;104330;1260;59806;-63
2023/10/02 20:14:33;;;;;;;10.60;5.90;;;;;;;14.62;100.00;100357.78;104264;1260;72150;-62
2023/10/02 20:17:05;;;;;;;13.00;6.60;;;;;;;14.65;100.00;100357.29;104169;1279;69700;-62
2023/10/02 20:19:33;;;;;;;9.10;5.80;;;;;;;14.70;100.00;100357.23;104211;1279;72368;-62
2023/10/02 20:22:03;;;;;;;10.10;6.20;;;;;;;14.90;100.00;100358.16;107811;1256;61823;-63
2023/10/02 20:24:38;;;;;;;11.80;5.80;;;;;;;14.94;100.00;100356.92;105840;1257;60650;-63
2023/10/02 20:27:06;;;;;;;9.30;5.80;;;;;;;14.91;100.00;100357.09;104316;1260;73264;-62
2023/10/02 20:29:35;;;;;;;8.30;5.40;;;;;;;14.91;100.00;100355.85;104143;1263;69565;-62
2023/10/02 20:32:03;;;;;;;7.50;5.20;;;;;;;14.87;100.00;100356.91;104338;1257;72931;-64
2023/10/02 20:34:31;;;;;;;;;;;;;;;14.85;100.00;100355.82;104406;1257;61420;-64
2023/10/02 20:37:04;;;;;;;7.60;5.10;;;;;;;14.83;100.00;100359.58;104229;1271;60457;-63
2023/10/02 20:39:35;;;;;;;10.20;5.40;;;;;;;14.79;100.00;100356.25;104276;1278;72593;-63
2023/10/02 20:42:03;;;;;;;8.50;4.80;;;;;;;14.78;100.00;100355.77;104260;1278;69984;-62
2023/10/02 20:44:30;;;;;;;;;;;;;;;14.77;100.00;100357.26;104338;1258;73392;-62
2023/10/02 20:46:58;;;;;;;;;;;;;;;14.71;100.00;100357.34;104211;1261;62323;-62
2023/10/02 20:49:42;;;;;;;7.40;4.50;;;;;;;14.68;100.00;100358.91;104220;1263;59464;-62
2023/10/02 20:52:10;;;;;;;9.40;5.10;;;;;;;14.67;100.00;100354.89;104230;1266;72851;-62